Погода Закорьена 2 недели

Витебская область, Белоруссия

24 мая-05 июня
  • 24мая
    Сегодня
    +11°
    +24°
    Ясно и безоблачно
    ВремяПогодаТемператураВлажностьДавлениеВетер, м/сВероятность осадков
    00:00Практически безоблачно+16°C80 %757 мм3.1 м/с2 %
    03:00Ясно и безоблачно+14°C73 %757 мм3.9 м/с2 %
    06:00Ясно и безоблачно+13°C71 %758 мм3.5 м/с2 %
    09:00Ясно и безоблачно+18°C63 %759 мм4.1 м/с2 %
    12:00Ясно и безоблачно+22°C51 %759 мм4.5 м/с2 %
    15:00Ясно и безоблачно+24°C45 %758 мм4.8 м/с2 %
    18:00Ясно и безоблачно+23°C47 %758 мм4.2 м/с2 %
    21:00Ясно и безоблачно+19°C66 %758 мм2.6 м/с2 %
  • 25мая
    Суббота
    +12°
    +25°
    Небольшая облачность
    ВремяПогодаТемператураВлажностьДавлениеВетер, м/сВероятность осадков
    00:00Ясно и безоблачно+15°C67 %758 мм3.7 м/с2 %
    03:00Ясно и безоблачно+13°C73 %758 мм2.9 м/с2 %
    06:00Ясно и безоблачно+13°C78 %758 мм2.9 м/с2 %
    09:00Ясно и безоблачно+18°C65 %758 мм2.9 м/с2 %
    12:00Ясно и безоблачно+23°C55 %758 мм2.8 м/с2 %
    15:00Небольшая облачность+24°C46 %757 мм3.4 м/с8 %
    18:00Небольшая облачность+24°C50 %756 мм3.2 м/с33 %
    21:00Ясно и безоблачно+20°C71 %756 мм1.0 м/с8 %
  • 26мая
    Воскресенье
    +13°
    +25°
    Практически безоблачно
    ВремяПогодаТемператураВлажностьДавлениеВетер, м/сВероятность осадков
    00:00Ясно и безоблачно+17°C85 %756 мм1.8 м/с2 %
    03:00Ясно и безоблачно+13°C91 %756 мм2.5 м/с2 %
    06:00Ясно и безоблачно+13°C89 %757 мм1.8 м/с2 %
    09:00Ясно и безоблачно+19°C65 %757 мм0.9 м/с2 %
    12:00Ясно и безоблачно+24°C43 %758 мм0.7 м/с2 %
    15:00Практически безоблачно+25°C41 %757 мм0.6 м/с2 %
    18:00Практически безоблачно+25°C40 %757 мм0.2 м/с2 %
    21:00Практически безоблачно+20°C68 %757 мм1.8 м/с2 %
  • 27мая
    Понедельник
    +12°
    +26°
    Ясно и безоблачно
    ВремяПогодаТемператураВлажностьДавлениеВетер, м/сВероятность осадков
    00:00Ясно и безоблачно+16°C78 %757 мм2.4 м/с2 %
    03:00Ясно и безоблачно+14°C86 %757 мм2.2 м/с2 %
    06:00Ясно и безоблачно+15°C90 %757 мм1.9 м/с2 %
    09:00Практически безоблачно+20°C73 %758 мм1.8 м/с2 %
    12:00Ясно и безоблачно+24°C53 %758 мм2.2 м/с7 %
    15:00Ясно и безоблачно+25°C46 %757 мм1.3 м/с11 %
    18:00Небольшая облачность+25°C50 %757 мм2.5 м/с13 %
    21:00Ясно и безоблачно+20°C83 %756 мм1.5 м/с11 %
Мы используем cookies
Соглашаюсь